createdAt,value
2023-03-16T00:01:47.795Z,3.70
2023-03-16T00:04:15.210Z,5.82
2023-03-16T00:06:42.555Z,5.25
2023-03-16T00:09:10.193Z,2.50
2023-03-16T00:11:37.575Z,1.80
2023-03-16T00:14:04.931Z,3.08
2023-03-16T00:16:32.366Z,4.18
2023-03-16T00:18:59.774Z,1.48
2023-03-16T00:21:27.136Z,3.33
2023-03-16T00:23:54.503Z,1.75
2023-03-16T00:26:22.818Z,4.45
2023-03-16T00:28:50.167Z,1.80
2023-03-16T00:31:17.458Z,2.88
2023-03-16T00:33:44.806Z,3.17
2023-03-16T00:36:12.660Z,2.90
2023-03-16T00:38:45.629Z,3.17
2023-03-16T00:41:15.578Z,2.38
2023-03-16T00:43:44.803Z,3.00
2023-03-16T00:46:14.256Z,3.10
2023-03-16T00:48:43.368Z,2.78
2023-03-16T00:51:13.228Z,2.70
2023-03-16T00:53:42.061Z,1.98
2023-03-16T00:56:10.385Z,3.03
2023-03-16T00:58:39.400Z,2.60
2023-03-16T01:01:09.075Z,3.83
2023-03-16T01:03:37.044Z,2.13
2023-03-16T01:06:06.733Z,3.75
2023-03-16T01:08:34.161Z,2.15
2023-03-16T01:11:04.803Z,2.95
2023-03-16T01:13:32.766Z,1.88
2023-03-16T01:16:00.690Z,2.03
2023-03-16T01:18:29.160Z,3.85
2023-03-16T01:20:56.547Z,2.15
2023-03-16T01:23:24.169Z,3.33
2023-03-16T01:25:54.770Z,3.00
2023-03-16T01:28:24.944Z,4.60
2023-03-16T01:30:54.494Z,3.10
2023-03-16T01:33:22.601Z,2.00
2023-03-16T01:35:59.676Z,3.22
2023-03-16T01:38:30.557Z,1.90
2023-03-16T01:40:58.274Z,3.67
2023-03-16T01:43:28.117Z,3.30
2023-03-16T01:46:18.544Z,6.00
2023-03-16T01:51:51.000Z,3.33
2023-03-16T01:54:28.755Z,2.08
2023-03-16T01:57:17.320Z,3.50
2023-03-16T01:59:53.831Z,2.40
2023-03-16T02:02:26.148Z,1.77
2023-03-16T02:05:05.188Z,1.63
2023-03-16T02:07:36.606Z,3.45
2023-03-16T02:10:05.322Z,2.38
2023-03-16T02:12:33.044Z,2.65
2023-03-16T02:15:02.411Z,2.22
2023-03-16T02:17:50.684Z,2.65
2023-03-16T02:22:58.751Z,2.60
2023-03-16T02:25:35.614Z,3.10
2023-03-16T02:31:02.882Z,5.53
2023-03-16T02:33:31.884Z,2.33
2023-03-16T02:35:59.390Z,1.95
2023-03-16T02:38:28.955Z,1.50
2023-03-16T02:41:01.807Z,2.65
2023-03-16T02:43:33.723Z,3.55
2023-03-16T02:46:12.099Z,2.97
2023-03-16T02:48:45.694Z,2.50
2023-03-16T02:51:13.960Z,1.88
2023-03-16T02:53:41.440Z,1.67
2023-03-16T02:56:09.157Z,3.50
2023-03-16T02:58:37.563Z,1.50
2023-03-16T03:01:12.572Z,5.13
2023-03-16T03:03:40.452Z,3.45
2023-03-16T03:06:08.080Z,2.25
2023-03-16T03:08:37.646Z,2.00
2023-03-16T03:11:05.213Z,2.50
2023-03-16T03:13:32.648Z,3.08
2023-03-16T03:16:00.478Z,2.78
2023-03-16T03:18:29.084Z,1.95
2023-03-16T03:20:56.544Z,1.75
2023-03-16T03:23:24.037Z,3.67
2023-03-16T03:25:51.374Z,2.45
2023-03-16T03:28:19.203Z,3.25
2023-03-16T03:30:46.724Z,2.13
2023-03-16T03:33:14.176Z,3.85
2023-03-16T03:35:42.344Z,2.40
2023-03-16T03:38:10.367Z,2.28
2023-03-16T03:40:38.340Z,2.55
2023-03-16T03:43:06.648Z,4.10
2023-03-16T03:45:38.516Z,1.80
2023-03-16T03:48:06.161Z,2.28
2023-03-16T03:50:34.339Z,4.28
2023-03-16T03:53:28.919Z,3.53
2023-03-16T03:56:16.239Z,4.60
2023-03-16T03:58:43.641Z,2.47
2023-03-16T04:01:14.066Z,3.22
2023-03-16T04:03:44.797Z,3.58
2023-03-16T04:06:15.404Z,2.33
2023-03-16T04:08:43.018Z,3.08
2023-03-16T04:11:15.529Z,4.88
2023-03-16T04:13:43.394Z,2.85
2023-03-16T04:16:11.380Z,2.50
2023-03-16T04:18:43.364Z,4.47
2023-03-16T04:21:16.156Z,2.65
2023-03-16T04:23:45.664Z,3.63
2023-03-16T04:26:13.595Z,2.33
2023-03-16T04:28:44.123Z,4.43
2023-03-16T04:31:15.034Z,3.13
2023-03-16T04:33:45.401Z,4.57
2023-03-16T04:36:13.647Z,2.45
2023-03-16T04:38:42.368Z,2.00
2023-03-16T04:41:11.708Z,3.53
2023-03-16T04:43:45.964Z,3.17
2023-03-16T04:46:19.602Z,3.42
2023-03-16T04:48:47.151Z,3.00
2023-03-16T04:51:14.505Z,3.90
2023-03-16T04:53:49.333Z,4.63
2023-03-16T04:56:24.173Z,4.55
2023-03-16T04:58:57.393Z,3.35
2023-03-16T05:01:29.634Z,3.20
2023-03-16T05:03:59.944Z,2.63
2023-03-16T05:06:29.338Z,4.20
2023-03-16T05:09:01.071Z,4.05
2023-03-16T05:11:29.923Z,3.20
2023-03-16T05:14:00.819Z,3.55
2023-03-16T05:16:29.385Z,3.58
2023-03-16T05:19:01.419Z,5.97
2023-03-16T05:21:32.346Z,3.80
2023-03-16T05:24:05.734Z,4.97
2023-03-16T05:26:34.162Z,4.28
2023-03-16T05:29:02.602Z,5.85
2023-03-16T05:31:32.996Z,4.65
2023-03-16T05:34:03.408Z,4.05
2023-03-16T05:36:30.868Z,7.57
2023-03-16T05:39:05.867Z,7.47
2023-03-16T05:41:37.378Z,7.07
2023-03-16T05:44:12.304Z,4.65
2023-03-16T05:46:57.174Z,3.80
2023-03-16T05:49:24.984Z,4.35
2023-03-16T05:51:54.795Z,4.80
2023-03-16T05:54:22.681Z,3.20
2023-03-16T05:56:50.363Z,3.28
2023-03-16T05:59:19.186Z,5.53
2023-03-16T06:01:52.312Z,3.42
2023-03-16T06:04:24.975Z,3.42
2023-03-16T06:06:52.568Z,4.68
2023-03-16T06:09:22.724Z,3.03
2023-03-16T06:11:50.116Z,5.05
2023-03-16T06:14:18.540Z,5.72
2023-03-16T06:16:46.528Z,5.68
2023-03-16T06:19:15.459Z,5.40
2023-03-16T06:21:44.632Z,6.63
2023-03-16T06:24:13.184Z,3.88
2023-03-16T06:26:40.526Z,5.15
2023-03-16T06:29:11.385Z,3.60
2023-03-16T06:31:40.147Z,5.10
2023-03-16T06:34:07.529Z,3.70
2023-03-16T06:36:34.891Z,3.60
2023-03-16T06:39:04.720Z,3.88
2023-03-16T06:41:39.720Z,3.63
2023-03-16T06:44:07.047Z,5.03
2023-03-16T06:46:38.790Z,5.03
2023-03-16T06:49:07.859Z,4.70
2023-03-16T06:51:35.262Z,4.30
2023-03-16T06:54:02.667Z,6.97
2023-03-16T06:56:31.966Z,4.22
2023-03-16T06:58:59.396Z,2.83
2023-03-16T07:01:26.880Z,4.13
2023-03-16T07:03:54.934Z,4.47
2023-03-16T07:06:27.472Z,4.70
2023-03-16T07:08:55.272Z,6.35
2023-03-16T07:11:23.832Z,5.18
2023-03-16T07:13:51.984Z,6.55
2023-03-16T07:16:22.491Z,6.10
2023-03-16T07:18:50.402Z,4.82
2023-03-16T07:21:19.928Z,3.13
2023-03-16T07:23:48.215Z,4.13
2023-03-16T07:26:21.171Z,3.65
2023-03-16T07:28:54.154Z,5.93
2023-03-16T07:31:22.327Z,5.80
2023-03-16T07:33:49.859Z,4.25
2023-03-16T07:36:26.103Z,5.47
2023-03-16T07:38:57.570Z,4.75
2023-03-16T07:41:25.714Z,3.97
2023-03-16T07:43:53.650Z,3.78
2023-03-16T07:46:25.354Z,5.05
2023-03-16T07:48:53.026Z,5.38
2023-03-16T07:51:20.444Z,7.13
2023-03-16T07:53:50.241Z,4.45
2023-03-16T07:56:22.098Z,7.43
2023-03-16T07:58:53.252Z,4.90
2023-03-16T08:01:20.660Z,5.88
2023-03-16T08:03:49.096Z,5.75
2023-03-16T08:06:16.586Z,6.57
2023-03-16T08:08:44.070Z,5.30
2023-03-16T08:11:23.965Z,4.68
2023-03-16T08:13:58.621Z,3.88
2023-03-16T08:16:37.738Z,5.78
2023-03-16T08:19:07.365Z,5.40
2023-03-16T08:21:53.128Z,6.35
2023-03-16T08:24:24.088Z,7.80
2023-03-16T08:26:51.709Z,5.38
2023-03-16T08:29:19.510Z,4.07
2023-03-16T08:31:48.468Z,5.72
2023-03-16T08:34:27.073Z,6.88
2023-03-16T08:36:54.577Z,6.40
2023-03-16T08:39:23.033Z,6.43
2023-03-16T08:41:51.341Z,4.03
2023-03-16T08:44:26.962Z,7.03
2023-03-16T08:46:55.035Z,4.85
2023-03-16T08:49:24.269Z,4.45
2023-03-16T08:52:01.046Z,4.22
2023-03-16T08:54:28.364Z,4.85
2023-03-16T08:56:55.750Z,3.88
2023-03-16T08:59:29.837Z,4.68
2023-03-16T09:01:58.187Z,4.78
2023-03-16T09:04:25.669Z,5.53
2023-03-16T09:07:07.898Z,5.72
2023-03-16T09:09:36.210Z,5.70
2023-03-16T09:12:04.639Z,6.32
2023-03-16T09:14:32.703Z,4.55
2023-03-16T09:17:00.133Z,6.80
2023-03-16T09:19:30.688Z,5.15
2023-03-16T09:22:02.273Z,4.55
2023-03-16T09:24:29.757Z,5.35
2023-03-16T09:26:57.749Z,4.82
2023-03-16T09:29:25.091Z,7.13
2023-03-16T09:31:52.504Z,5.28
2023-03-16T09:34:20.166Z,6.22
2023-03-16T09:36:47.516Z,5.07
2023-03-16T09:39:14.818Z,3.40
2023-03-16T09:47:24.537Z,6.03
2023-03-16T09:49:52.520Z,5.22
2023-03-16T09:52:59.513Z,6.32
2023-03-16T09:55:31.640Z,8.52
2023-03-16T09:58:00.860Z,9.95
2023-03-16T10:00:32.097Z,5.30
2023-03-16T10:03:17.941Z,5.32
2023-03-16T10:05:46.650Z,5.20
2023-03-16T10:13:47.898Z,9.37
2023-03-16T10:19:21.040Z,4.53
2023-03-16T10:21:49.751Z,6.05
2023-03-16T10:24:25.804Z,5.15
2023-03-16T10:27:01.396Z,4.28
2023-03-16T10:29:32.939Z,6.30
2023-03-16T10:32:08.362Z,6.50
2023-03-16T10:34:35.997Z,9.00
2023-03-16T10:37:05.170Z,4.70
2023-03-16T10:39:43.623Z,6.47
2023-03-16T10:42:17.196Z,5.95
2023-03-16T10:44:45.294Z,5.57
2023-03-16T10:47:19.251Z,6.82
2023-03-16T10:49:49.455Z,7.43
2023-03-16T10:52:20.585Z,8.30
2023-03-16T10:54:51.797Z,10.23
2023-03-16T11:00:01.685Z,6.45
2023-03-16T11:02:33.430Z,6.22
2023-03-16T11:05:31.823Z,5.80
2023-03-16T11:08:21.028Z,5.28
2023-03-16T11:10:58.020Z,6.80
2023-03-16T11:13:34.088Z,12.00
2023-03-16T11:16:11.544Z,5.72
2023-03-16T11:18:43.813Z,5.68
2023-03-16T11:21:34.844Z,6.53
2023-03-16T11:24:04.053Z,4.25
2023-03-16T11:26:36.315Z,5.03
2023-03-16T11:29:11.399Z,7.97
2023-03-16T11:31:58.436Z,7.35
2023-03-16T11:34:29.731Z,7.32
2023-03-16T11:40:09.647Z,6.13
2023-03-16T11:45:37.441Z,7.63
2023-03-16T11:56:36.842Z,8.13
2023-03-16T11:59:48.935Z,4.85
2023-03-16T12:08:14.986Z,7.03
2023-03-16T12:16:39.089Z,5.15
2023-03-16T12:19:18.298Z,7.70
2023-03-16T12:21:50.292Z,6.65
2023-03-16T12:24:22.810Z,4.63
2023-03-16T12:26:50.572Z,6.22
2023-03-16T12:29:33.867Z,4.18
2023-03-16T12:35:21.753Z,7.20
2023-03-16T12:40:36.417Z,4.30
2023-03-16T12:48:30.196Z,5.18
2023-03-16T12:50:59.522Z,5.80
2023-03-16T12:53:40.521Z,4.40
2023-03-16T12:56:10.303Z,4.88
2023-03-16T12:58:43.788Z,6.25
2023-03-16T13:01:12.423Z,6.85
2023-03-16T13:03:40.268Z,5.30
2023-03-16T13:06:07.677Z,4.80
2023-03-16T13:08:46.329Z,6.45
2023-03-16T13:11:15.092Z,7.90
2023-03-16T13:13:54.207Z,4.13
2023-03-16T13:16:29.159Z,5.20
2023-03-16T13:18:56.988Z,7.55
2023-03-16T13:21:42.875Z,5.93
2023-03-16T13:26:59.116Z,5.30
2023-03-16T13:31:57.723Z,5.28
2023-03-16T13:34:31.793Z,6.85
2023-03-16T13:37:00.188Z,4.75
2023-03-16T13:39:30.247Z,4.95
2023-03-16T13:42:03.636Z,6.38
2023-03-16T13:44:32.125Z,5.28
2023-03-16T13:47:05.373Z,5.90
2023-03-16T13:49:32.853Z,6.00
2023-03-16T13:52:02.571Z,6.22
2023-03-16T13:54:30.888Z,5.10
2023-03-16T13:57:00.673Z,6.65
2023-03-16T13:59:28.136Z,6.15
2023-03-16T14:01:59.919Z,5.00
2023-03-16T14:04:30.956Z,6.22
2023-03-16T14:07:00.646Z,3.97
2023-03-16T14:09:37.206Z,4.28
2023-03-16T14:12:04.934Z,4.43
2023-03-16T14:14:39.502Z,6.70
2023-03-16T14:17:18.059Z,6.13
2023-03-16T14:19:50.847Z,6.68
2023-03-16T14:22:21.402Z,6.18
2023-03-16T14:24:54.754Z,7.97
2023-03-16T14:27:29.806Z,7.32
2023-03-16T14:30:03.337Z,7.95
2023-03-16T14:32:32.718Z,16.60
2023-03-16T14:37:50.447Z,8.00
2023-03-16T14:40:33.514Z,7.28
2023-03-16T14:43:03.981Z,8.20
2023-03-16T14:45:34.994Z,22.00
2023-03-16T14:48:06.826Z,20.35
2023-03-16T14:50:35.080Z,20.30
2023-03-16T14:53:04.354Z,18.35
2023-03-16T14:55:32.357Z,17.00
2023-03-16T14:57:59.710Z,20.65
2023-03-16T15:00:27.146Z,11.50
2023-03-16T15:03:03.920Z,9.65
2023-03-16T15:05:36.284Z,10.57
2023-03-16T15:08:04.475Z,10.43
2023-03-16T15:10:34.665Z,10.13
2023-03-16T15:13:13.361Z,12.20
2023-03-16T15:15:42.788Z,11.10
2023-03-16T15:18:10.557Z,9.52
2023-03-16T15:20:42.092Z,9.05
2023-03-16T15:23:15.465Z,8.95
2023-03-16T15:25:45.048Z,7.53
2023-03-16T15:28:22.844Z,7.57
2023-03-16T15:30:52.873Z,9.20
2023-03-16T15:33:20.881Z,7.28
2023-03-16T15:35:49.810Z,8.80
2023-03-16T15:38:27.823Z,9.63
2023-03-16T15:43:25.796Z,12.25
2023-03-16T15:45:54.415Z,10.90
2023-03-16T15:48:24.747Z,9.65
2023-03-16T15:50:56.133Z,17.27
2023-03-16T15:56:03.548Z,17.67
2023-03-16T15:58:32.731Z,19.15
2023-03-16T16:01:01.317Z,21.80
2023-03-16T16:03:28.816Z,12.55
2023-03-16T16:05:56.293Z,23.08
2023-03-16T16:08:23.744Z,15.68
2023-03-16T16:10:53.430Z,13.20
2023-03-16T16:13:34.140Z,16.88
2023-03-16T16:16:13.650Z,15.48
2023-03-16T16:18:41.528Z,15.32
2023-03-16T16:21:16.313Z,14.38
2023-03-16T16:23:43.787Z,15.88
2023-03-16T16:29:17.869Z,31.43
2023-03-16T16:31:45.338Z,20.45
2023-03-16T16:34:15.430Z,23.40
2023-03-16T16:36:43.460Z,15.27
2023-03-16T16:39:11.384Z,13.18
2023-03-16T16:41:40.236Z,13.73
2023-03-16T16:44:17.387Z,14.27
2023-03-16T16:46:45.083Z,19.60
2023-03-16T16:51:52.438Z,15.45
2023-03-16T16:54:23.145Z,17.25
2023-03-16T16:56:51.517Z,14.32
2023-03-16T16:59:22.492Z,20.38
2023-03-16T17:01:52.041Z,15.57
2023-03-16T17:04:23.509Z,17.65
2023-03-16T17:06:55.643Z,19.13
2023-03-16T17:09:24.063Z,18.15
2023-03-16T17:11:52.126Z,19.08
2023-03-16T17:14:22.533Z,14.88
2023-03-16T17:16:52.065Z,13.88
2023-03-16T17:21:58.629Z,19.23
2023-03-16T17:24:26.270Z,14.77
2023-03-16T17:26:56.476Z,15.23
2023-03-16T17:29:33.072Z,15.70
2023-03-16T17:32:03.134Z,15.75
2023-03-16T17:34:33.529Z,17.48
2023-03-16T17:37:02.236Z,13.00
2023-03-16T17:39:32.317Z,14.30
2023-03-16T17:44:43.212Z,14.57
2023-03-16T17:47:27.805Z,12.60
2023-03-16T17:49:55.313Z,13.85
2023-03-16T17:52:25.625Z,11.40
2023-03-16T17:54:54.134Z,12.40
2023-03-16T17:57:27.674Z,12.45
2023-03-16T17:59:55.725Z,12.77
2023-03-16T18:05:02.474Z,11.70
2023-03-16T18:07:30.396Z,11.68
2023-03-16T18:09:58.123Z,10.43
2023-03-16T18:12:25.795Z,13.63
2023-03-16T18:14:58.677Z,12.57
2023-03-16T18:17:29.179Z,15.90
2023-03-16T18:19:56.806Z,19.42
2023-03-16T18:22:25.392Z,16.30
2023-03-16T18:24:54.124Z,16.40
2023-03-16T18:27:22.586Z,17.65
2023-03-16T18:29:50.045Z,19.30
2023-03-16T18:34:54.692Z,18.10
2023-03-16T18:37:24.312Z,20.60
2023-03-16T18:39:52.567Z,17.60
2023-03-16T18:42:23.183Z,20.25
2023-03-16T18:44:51.378Z,17.58
2023-03-16T18:47:21.294Z,21.98
2023-03-16T18:49:51.635Z,21.83
2023-03-16T18:52:22.338Z,17.70
2023-03-16T18:54:50.465Z,24.05
2023-03-16T18:57:20.372Z,19.13
2023-03-16T18:59:48.027Z,23.25
2023-03-16T19:02:37.223Z,18.48
2023-03-16T19:05:06.813Z,18.00
2023-03-16T19:07:36.725Z,18.10
2023-03-16T19:10:19.471Z,23.02
2023-03-16T19:12:46.776Z,20.42
2023-03-16T19:15:20.050Z,25.25
2023-03-16T19:17:48.034Z,18.33
2023-03-16T19:20:17.374Z,18.58
2023-03-16T19:22:46.721Z,22.35
2023-03-16T19:25:20.234Z,18.88
2023-03-16T19:27:48.056Z,16.58
2023-03-16T19:30:24.520Z,16.55
2023-03-16T19:32:52.507Z,19.52
2023-03-16T19:35:20.907Z,15.30
2023-03-16T19:37:48.589Z,14.73
2023-03-16T19:40:18.930Z,15.23
2023-03-16T19:42:47.055Z,14.88
2023-03-16T19:47:54.746Z,14.57
2023-03-16T19:50:25.061Z,13.07
2023-03-16T19:52:52.790Z,13.60
2023-03-16T19:55:23.273Z,13.38
2023-03-16T19:57:59.336Z,15.90
2023-03-16T20:00:27.292Z,12.95
2023-03-16T20:02:56.763Z,15.18
2023-03-16T20:05:26.582Z,14.88
2023-03-16T20:07:55.611Z,16.00
2023-03-16T20:10:25.529Z,13.65
2023-03-16T20:12:55.281Z,13.90
2023-03-16T20:15:23.482Z,14.60
2023-03-16T20:17:51.465Z,16.23
2023-03-16T20:20:22.598Z,13.70
2023-03-16T20:22:51.011Z,14.00
2023-03-16T20:25:18.972Z,12.57
2023-03-16T20:27:50.858Z,13.80
2023-03-16T20:30:19.431Z,13.85
2023-03-16T20:32:47.480Z,18.15
2023-03-16T20:35:23.175Z,13.88
2023-03-16T20:37:53.048Z,16.10
2023-03-16T20:40:22.015Z,15.98
2023-03-16T20:42:50.205Z,15.55
2023-03-16T20:45:20.455Z,15.20
2023-03-16T20:47:48.129Z,16.42
2023-03-16T20:50:26.245Z,18.35
2023-03-16T20:52:54.432Z,16.42
2023-03-16T20:55:26.500Z,18.17
2023-03-16T21:00:27.486Z,14.60
2023-03-16T21:02:55.272Z,23.27
2023-03-16T21:05:24.382Z,20.95
2023-03-16T21:07:52.941Z,23.35
2023-03-16T21:10:23.662Z,18.63
2023-03-16T21:12:53.924Z,16.95
2023-03-16T21:18:04.361Z,25.60
2023-03-16T21:20:33.155Z,22.23
2023-03-16T21:23:01.659Z,22.08
2023-03-16T21:25:32.288Z,25.45
2023-03-16T21:28:03.391Z,21.45
2023-03-16T21:30:33.610Z,23.38
2023-03-16T21:33:02.110Z,20.17
2023-03-16T21:35:34.624Z,21.35
2023-03-16T21:38:11.398Z,24.65
2023-03-16T21:40:38.805Z,23.50
2023-03-16T21:43:06.492Z,22.40
2023-03-16T21:45:33.719Z,24.10
2023-03-16T21:48:01.194Z,29.25
2023-03-16T21:50:32.437Z,24.05
2023-03-16T21:53:00.287Z,21.35
2023-03-16T21:55:29.525Z,21.13
2023-03-16T21:58:00.534Z,19.83
2023-03-16T22:00:30.855Z,23.80
2023-03-16T22:03:00.376Z,20.35
2023-03-16T22:08:24.375Z,18.33
2023-03-16T22:10:52.433Z,22.27
2023-03-16T22:13:20.524Z,17.95
2023-03-16T22:15:51.770Z,21.65
2023-03-16T22:20:58.136Z,21.85
2023-03-16T22:23:45.211Z,21.13
2023-03-16T22:26:16.805Z,20.95
2023-03-16T22:28:44.353Z,16.48
2023-03-16T22:31:15.623Z,18.38
2023-03-16T22:33:43.360Z,16.73
2023-03-16T22:36:13.982Z,19.23
2023-03-16T22:38:41.851Z,17.95
2023-03-16T22:41:12.996Z,15.65
2023-03-16T22:43:42.156Z,20.75
2023-03-16T22:46:19.720Z,17.73
2023-03-16T22:48:47.333Z,17.00
2023-03-16T22:51:23.347Z,17.92
2023-03-16T22:53:52.024Z,21.35
2023-03-16T22:56:19.728Z,18.27
2023-03-16T22:58:50.461Z,19.23
2023-03-16T23:03:55.037Z,17.77
2023-03-16T23:06:26.806Z,12.30
2023-03-16T23:08:55.295Z,16.48
2023-03-16T23:11:28.350Z,13.65
2023-03-16T23:13:56.145Z,16.17
2023-03-16T23:16:44.936Z,12.52
2023-03-16T23:19:31.908Z,13.27
2023-03-16T23:22:03.923Z,13.35
2023-03-16T23:24:32.609Z,13.25
2023-03-16T23:27:00.184Z,13.00
2023-03-16T23:29:28.311Z,11.75
2023-03-16T23:31:55.961Z,12.63
2023-03-16T23:34:25.725Z,13.30
2023-03-16T23:36:53.088Z,10.52
2023-03-16T23:39:20.425Z,9.80
2023-03-16T23:41:49.116Z,10.77
2023-03-16T23:44:18.258Z,11.60
2023-03-16T23:46:45.680Z,9.02
2023-03-16T23:49:21.945Z,9.98
2023-03-16T23:51:49.368Z,10.43
2023-03-16T23:54:20.963Z,9.35
2023-03-16T23:56:48.453Z,7.82
2023-03-16T23:59:16.683Z,8.90
